Terminal Aerodrome Forecast
Issued by NWS Wakefield, VA

Home | Current Version | Previous Version | Text Only | Print | Product List | Glossary On
Versions: 1 2 3 4 5 6 7 8 9 10 11 12 13
000
FTUS41 KAKQ 221535 AAA
TAFRIC
TAF AMD
KRIC 221535Z 2216/2312 34011KT P6SM SCT050
     FM221700 33012G19KT P6SM SKC
     FM222200 36009KT P6SM SKC=

USA.gov is the U.S. government's official web portal to all federal, state and local government web resources and services.